In Rescue
 
Open Full Screen Window  High Contrast Mode
Wind Gusting 00 knots
10
January 24, 2020 7:20 PM CST
Present Weather: Unknown Precipitation
Weather Information
Wind Direction
  320 °
Wind Speed
  10 kt (12 mph)
Wind Gust
  00 kt (0 mph)
Altimeter
29.94 in
Visibility
10 SM
Temperature
-02° C
28° F
Dewpoint
-03° C
27° F
Humidity
93%
1hr Rain Fall
00.00 in.
24hr Rain Fall
00.00 in.
Sky Condition
Overcast @ 900 ft
IFR

METAR KOWA 250120Z AUTO 32010KT 10SM UP OVC009 M02/M03 A2994 RMK AO2

FAA Disclaimer: The data displayed is for advisory purposes only and is not to be used for flight planning or operations.